Wetterdaten: Woche 16.04.18 - 22.04.18 (KW16)
Datum Zeit Temp. A. Pool Temp. Feuchte A. Luftdruck Regen Wind Richtung Sonnenschein ET UV Solar Taupunkt Windchill Windben Empfang
16.04.2018 00:00 16,6 C 11,1 C 70 % 1007,0 hPa 0,0 l/m 5,4 km/h (1 Bft) O 0,00 h 0,000 mm 0,0 UV-I 0 W/m 11,1 C 16,2 C 7,4 km/h (2 Bft) 98,83 %
16.04.2018 01:00 15,5 C 11,1 C 77 % 1006,9 hPa 0,0 l/m 2,1 km/h (1 Bft) O-NO 0,00 h 0,025 mm 0,0 UV-I 0 W/m 11,4 C 15,5 C 3,3 km/h (1 Bft) 97,70 %
16.04.2018 02:00 14,7 C 11,1 C 81 % 1007,2 hPa 0,0 l/m 6,3 km/h (2 Bft) S-SW 0,00 h 0,000 mm 0,0 UV-I 0 W/m 11,5 C 14,3 C 8,6 km/h (2 Bft) 96,42 %
16.04.2018 03:00 14,7 C 11,1 C 78 % 1007,9 hPa 0,0 l/m 11,9 km/h (2 Bft) W 0,00 h 0,026 mm 0,0 UV-I 0 W/m 10,8 C 12,0 C 16,2 km/h (3 Bft) 97,33 %
16.04.2018 04:00 14,0 C 11,1 C 79 % 1008,2 hPa 0,0 l/m 9,4 km/h (2 Bft) W 0,00 h 0,025 mm 0,0 UV-I 0 W/m 10,5 C 12,4 C 13,2 km/h (3 Bft) 98,81 %
16.04.2018 05:00 13,3 C 11,1 C 82 % 1008,3 hPa 0,0 l/m 7,9 km/h (2 Bft) SW 0,00 h 0,026 mm 0,0 UV-I 0 W/m 10,4 C 12,2 C 10,8 km/h (2 Bft) 98,31 %
16.04.2018 06:00 13,2 C 11,1 C 83 % 1008,6 hPa 0,0 l/m 8,9 km/h (2 Bft) W 0,00 h 0,025 mm 0,0 UV-I 13 W/m 10,3 C 11,7 C 12,9 km/h (3 Bft) 96,76 %
16.04.2018 07:00 13,1 C 11,2 C 85 % 1009,0 hPa 0,0 l/m 12,8 km/h (3 Bft) W-SW 0,00 h 0,025 mm 0,0 UV-I 43 W/m 10,6 C 9,8 C 17,9 km/h (3 Bft) 97,17 %
16.04.2018 08:00 13,3 C 11,4 C 84 % 1009,4 hPa 0,2 l/m 17,2 km/h (3 Bft) SW 0,05 h 0,051 mm 0,0 UV-I 70 W/m 10,7 C 8,5 C 24,0 km/h (4 Bft) 98,98 %
16.04.2018 09:00 12,9 C 11,4 C 87 % 1010,3 hPa 0,0 l/m 18,5 km/h (3 Bft) W-SW 0,00 h 0,076 mm 0,3 UV-I 73 W/m 10,7 C 7,5 C 25,6 km/h (4 Bft) 98,18 %
16.04.2018 10:00 13,2 C 11,5 C 87 % 1011,0 hPa 0,2 l/m 14,9 km/h (3 Bft) W-SW 0,00 h 0,077 mm 0,8 UV-I 159 W/m 11,1 C 9,1 C 20,9 km/h (4 Bft) 97,37 %
16.04.2018 11:00 14,6 C 11,7 C 80 % 1011,6 hPa 0,0 l/m 16,6 km/h (3 Bft) W 0,20 h 0,101 mm 1,5 UV-I 335 W/m 11,1 C 10,2 C 23,3 km/h (4 Bft) 97,00 %
16.04.2018 12:00 15,3 C 11,7 C 78 % 1012,0 hPa 0,0 l/m 14,0 km/h (3 Bft) W-SW 0,20 h 0,203 mm 1,7 UV-I 336 W/m 11,4 C 11,9 C 19,9 km/h (4 Bft) 98,58 %
16.04.2018 13:00 15,6 C 11,7 C 74 % 1012,3 hPa 0,0 l/m 10,4 km/h (2 Bft) W-SW 0,00 h 0,229 mm 1,2 UV-I 225 W/m 11,1 C 13,8 C 14,8 km/h (3 Bft) 97,90 %
16.04.2018 14:00 15,2 C 11,7 C 77 % 1012,6 hPa 0,0 l/m 8,9 km/h (2 Bft) W 0,17 h 0,152 mm 1,5 UV-I 223 W/m 11,2 C 13,9 C 13,1 km/h (3 Bft) 98,40 %
16.04.2018 15:00 15,4 C 11,7 C 76 % 1012,9 hPa 0,0 l/m 9,1 km/h (2 Bft) W 0,00 h 0,153 mm 0,6 UV-I 136 W/m 11,2 C 14,0 C 13,4 km/h (3 Bft) 95,95 %
16.04.2018 16:00 14,4 C 11,7 C 82 % 1013,4 hPa 0,0 l/m 4,2 km/h (1 Bft) W 0,00 h 0,101 mm 0,5 UV-I 123 W/m 11,3 C 14,3 C 6,9 km/h (2 Bft) 99,36 %
16.04.2018 17:00 14,5 C 11,7 C 80 % 1013,8 hPa 0,0 l/m 4,9 km/h (1 Bft) W 0,00 h 0,077 mm 0,0 UV-I 43 W/m 11,1 C 14,4 C 7,5 km/h (2 Bft) 97,88 %
16.04.2018 18:00 14,3 C 11,7 C 82 % 1014,1 hPa 0,0 l/m 5,9 km/h (2 Bft) W-SW 0,15 h 0,025 mm 0,0 UV-I 57 W/m 11,3 C 14,2 C 8,5 km/h (2 Bft) 99,25 %
16.04.2018 19:00 14,3 C 11,7 C 82 % 1014,6 hPa 0,0 l/m 4,6 km/h (1 Bft) W-SW 0,75 h 0,051 mm 0,0 UV-I 41 W/m 11,3 C 14,2 C 6,8 km/h (2 Bft) 95,52 %
16.04.2018 20:00 12,8 C 11,7 C 87 % 1015,6 hPa 0,0 l/m 3,1 km/h (1 Bft) W-SW 0,00 h 0,025 mm 0,0 UV-I 5 W/m 10,7 C 12,8 C 4,1 km/h (1 Bft) 98,81 %
16.04.2018 21:00 13,1 C 11,7 C 87 % 1016,7 hPa 0,4 l/m 10,2 km/h (2 Bft) W-SW 0,00 h 0,000 mm 0,0 UV-I 0 W/m 10,9 C 11,1 C 14,0 km/h (3 Bft) 97,44 %
16.04.2018 22:00 12,1 C 11,7 C 91 % 1017,5 hPa 0,2 l/m 10,7 km/h (2 Bft) W 0,00 h 0,026 mm 0,0 UV-I 0 W/m 10,7 C 9,7 C 14,3 km/h (3 Bft) 98,47 %
16.04.2018 23:00 11,9 C 11,7 C 92 % 1017,9 hPa 0,0 l/m 8,4 km/h (2 Bft) W-SW 0,00 h 0,025 mm 0,0 UV-I 0 W/m 10,6 C 10,6 C 12,4 km/h (3 Bft) 96,23 %
17.04.2018 00:00 11,9 C 11,7 C 91 % 1018,4 hPa 0,0 l/m 6,1 km/h (2 Bft) W-SW 0,00 h 0,000 mm 0,0 UV-I 0 W/m 10,6 C 11,3 C 8,5 km/h (2 Bft) 98,55 %
17.04.2018 01:00 11,7 C 11,7 C 93 % 1018,9 hPa 0,0 l/m 3,3 km/h (1 Bft) S-SW 0,00 h 0,000 mm 0,0 UV-I 0 W/m 10,6 C 11,7 C 4,7 km/h (1 Bft) 97,99 %
17.04.2018 02:00 11,6 C 11,7 C 93 % 1019,5 hPa 0,0 l/m 3,9 km/h (1 Bft) W-SW 0,00 h 0,000 mm 0,0 UV-I 0 W/m 10,6 C 11,6 C 5,6 km/h (1 Bft) 97,62 %
17.04.2018 03:00 11,6 C 11,7 C 94 % 1019,9 hPa 0,0 l/m 4,9 km/h (1 Bft) W 0,00 h 0,000 mm 0,0 UV-I 0 W/m 10,7 C 11,5 C 6,7 km/h (2 Bft) 96,52 %
17.04.2018 04:00 10,8 C 11,7 C 95 % 1020,4 hPa 0,0 l/m 4,5 km/h (1 Bft) W 0,00 h 0,000 mm 0,0 UV-I 0 W/m 9,9 C 10,8 C 5,7 km/h (1 Bft) 98,65 %
17.04.2018 05:00 9,3 C 11,7 C 96 % 1020,8 hPa 0,0 l/m 4,5 km/h (1 Bft) SW 0,00 h 0,000 mm 0,0 UV-I 0 W/m 8,7 C 9,3 C 6,0 km/h (2 Bft) 99,08 %
17.04.2018 06:00 9,1 C 11,7 C 96 % 1021,4 hPa 0,0 l/m 3,2 km/h (1 Bft) W-SW 0,05 h 0,000 mm 0,0 UV-I 20 W/m 8,5 C 9,1 C 4,8 km/h (1 Bft) 96,57 %
17.04.2018 07:00 9,3 C 11,7 C 97 % 1022,2 hPa 0,0 l/m 1,0 km/h (0 Bft) NW 0,00 h 0,000 mm 0,0 UV-I 63 W/m 8,8 C 9,3 C 2,3 km/h (1 Bft) 97,89 %
17.04.2018 08:00 10,0 C 11,7 C 97 % 1023,1 hPa 0,0 l/m 2,0 km/h (1 Bft) N-NW 0,00 h 0,025 mm 0,5 UV-I 104 W/m 9,6 C 10,0 C 3,8 km/h (1 Bft) 98,20 %
17.04.2018 09:00 11,2 C 11,7 C 96 % 1023,8 hPa 0,0 l/m 4,1 km/h (1 Bft) W-SW 0,60 h 0,051 mm 1,0 UV-I 350 W/m 10,6 C 11,1 C 6,8 km/h (2 Bft) 98,87 %
17.04.2018 10:00 13,8 C 11,7 C 87 % 1024,1 hPa 0,2 l/m 5,7 km/h (1 Bft) N-NW 0,95 h 0,178 mm 1,8 UV-I 545 W/m 11,7 C 13,4 C 8,6 km/h (2 Bft) 97,21 %
17.04.2018 11:00 15,4 C 11,7 C 79 % 1024,5 hPa 0,0 l/m 5,6 km/h (1 Bft) NW 0,83 h 0,279 mm 2,5 UV-I 629 W/m 11,9 C 15,3 C 8,7 km/h (2 Bft) 96,68 %
17.04.2018 12:00 16,9 C 11,7 C 68 % 1024,5 hPa 0,0 l/m 5,3 km/h (1 Bft) W 0,90 h 0,331 mm 3,1 UV-I 660 W/m 10,9 C 16,8 C 8,8 km/h (2 Bft) 98,62 %
17.04.2018 13:00 18,3 C 11,7 C 59 % 1024,4 hPa 0,0 l/m 5,3 km/h (1 Bft) S-SW 1,00 h 0,381 mm 3,2 UV-I 747 W/m 10,1 C 18,0 C 8,3 km/h (2 Bft) 97,81 %
17.04.2018 14:00 19,2 C 11,7 C 55 % 1024,1 hPa 0,0 l/m 5,7 km/h (1 Bft) W 0,87 h 0,431 mm 2,8 UV-I 670 W/m 9,9 C 18,9 C 8,9 km/h (2 Bft) 99,07 %
17.04.2018 15:00 19,8 C 11,7 C 51 % 1023,9 hPa 0,0 l/m 4,8 km/h (1 Bft) W-NW 0,82 h 0,432 mm 2,0 UV-I 545 W/m 9,3 C 19,6 C 7,4 km/h (2 Bft) 98,28 %
17.04.2018 16:00 20,0 C 11,7 C 51 % 1023,8 hPa 0,0 l/m 5,9 km/h (2 Bft) NW 0,82 h 0,356 mm 1,3 UV-I 424 W/m 9,5 C 19,7 C 9,2 km/h (2 Bft) 97,29 %
17.04.2018 17:00 20,0 C 11,7 C 51 % 1024,0 hPa 0,0 l/m 6,2 km/h (2 Bft) NW 1,00 h 0,279 mm 0,7 UV-I 354 W/m 9,7 C 19,7 C 9,3 km/h (2 Bft) 96,26 %
17.04.2018 18:00 19,5 C 11,7 C 51 % 1024,2 hPa 0,0 l/m 2,7 km/h (1 Bft) W-NW 1,00 h 0,254 mm 0,0 UV-I 187 W/m 9,1 C 19,5 C 4,4 km/h (1 Bft) 98,93 %
17.04.2018 19:00 18,5 C 11,7 C 56 % 1024,6 hPa 0,0 l/m 1,4 km/h (1 Bft) NW 0,62 h 0,127 mm 0,0 UV-I 43 W/m 9,6 C 18,5 C 2,6 km/h (1 Bft) 97,81 %
17.04.2018 20:00 16,4 C 11,7 C 67 % 1025,6 hPa 0,0 l/m 2,8 km/h (1 Bft) SW 0,00 h 0,051 mm 0,0 UV-I 0 W/m 10,3 C 16,3 C 4,6 km/h (1 Bft) 99,07 %
17.04.2018 21:00 14,6 C 11,7 C 76 % 1026,5 hPa 0,0 l/m 2,3 km/h (1 Bft) SW 0,00 h 0,025 mm 0,0 UV-I 0 W/m 10,4 C 14,6 C 3,2 km/h (1 Bft) 95,94 %
17.04.2018 22:00 13,1 C 11,7 C 81 % 1027,0 hPa 0,0 l/m 2,7 km/h (1 Bft) SW 0,00 h 0,026 mm 0,0 UV-I 0 W/m 9,9 C 13,1 C 3,8 km/h (1 Bft) 98,76 %
17.04.2018 23:00 12,4 C 11,7 C 84 % 1027,5 hPa 0,0 l/m 2,9 km/h (1 Bft) SW 0,00 h 0,000 mm 0,0 UV-I 0 W/m 9,8 C 12,4 C 3,8 km/h (1 Bft) 97,70 %
18.04.2018 00:00 11,2 C 11,7 C 86 % 1028,1 hPa 0,0 l/m 2,4 km/h (1 Bft) SW 0,00 h 0,000 mm 0,0 UV-I 0 W/m 9,0 C 11,2 C 3,1 km/h (1 Bft) 98,76 %
18.04.2018 01:00 10,1 C 11,7 C 89 % 1028,6 hPa 0,0 l/m 0,9 km/h (0 Bft) SW 0,00 h 0,000 mm 0,0 UV-I 0 W/m 8,4 C 10,1 C 1,4 km/h (1 Bft) 96,91 %
18.04.2018 02:00 9,4 C 11,7 C 91 % 1028,9 hPa 0,0 l/m 2,0 km/h (1 Bft) S-SW 0,00 h 0,000 mm 0,0 UV-I 0 W/m 7,9 C 9,4 C 2,8 km/h (1 Bft) 96,90 %
18.04.2018 03:00 9,0 C 11,7 C 90 % 1029,1 hPa 0,0 l/m 2,4 km/h (1 Bft) S-SW 0,00 h 0,000 mm 0,0 UV-I 0 W/m 7,5 C 9,0 C 3,2 km/h (1 Bft) 99,58 %
18.04.2018 04:00 7,9 C 11,7 C 92 % 1029,4 hPa 0,0 l/m 3,0 km/h (1 Bft) S-SW 0,00 h 0,000 mm 0,0 UV-I 0 W/m 6,8 C 7,9 C 3,7 km/h (1 Bft) 96,98 %
18.04.2018 05:00 7,3 C 11,7 C 93 % 1029,6 hPa 0,0 l/m 2,8 km/h (1 Bft) S-SW 0,00 h 0,000 mm 0,0 UV-I 5 W/m 6,3 C 7,3 C 3,8 km/h (1 Bft) 96,97 %
18.04.2018 06:00 6,9 C 11,7 C 94 % 1030,1 hPa 0,0 l/m 3,3 km/h (1 Bft) S-SW 0,37 h 0,000 mm 0,0 UV-I 29 W/m 6,0 C 6,9 C 4,4 km/h (1 Bft) 99,25 %
18.04.2018 07:00 8,8 C 11,7 C 92 % 1030,6 hPa 0,0 l/m 2,5 km/h (1 Bft) S-SW 1,00 h 0,025 mm 0,0 UV-I 155 W/m 7,6 C 8,8 C 3,4 km/h (1 Bft) 97,66 %
18.04.2018 08:00 12,1 C 11,7 C 82 % 1031,1 hPa 0,0 l/m 2,8 km/h (1 Bft) S-SW 1,00 h 0,077 mm 0,7 UV-I 313 W/m 9,2 C 12,1 C 4,2 km/h (1 Bft) 97,33 %
18.04.2018 09:00 13,8 C 11,7 C 76 % 1031,2 hPa 0,0 l/m 5,3 km/h (1 Bft) O 1,00 h 0,152 mm 1,3 UV-I 466 W/m 9,6 C 13,7 C 7,8 km/h (2 Bft) 97,58 %
18.04.2018 10:00 15,9 C 11,7 C 70 % 1031,4 hPa 0,0 l/m 6,9 km/h (2 Bft) NO 1,00 h 0,254 mm 2,2 UV-I 595 W/m 10,4 C 15,4 C 9,7 km/h (2 Bft) 98,46 %
18.04.2018 11:00 17,6 C 11,8 C 63 % 1031,2 hPa 0,0 l/m 6,0 km/h (2 Bft) O-NO 1,00 h 0,330 mm 3,1 UV-I 692 W/m 10,5 C 17,3 C 9,3 km/h (2 Bft) 98,77 %
18.04.2018 12:00 18,8 C 12,0 C 55 % 1031,1 hPa 0,0 l/m 5,8 km/h (2 Bft) O 1,00 h 0,407 mm 3,7 UV-I 747 W/m 9,4 C 18,3 C 9,0 km/h (2 Bft) 97,80 %
18.04.2018 13:00 19,7 C 12,2 C 49 % 1030,8 hPa 0,0 l/m 5,2 km/h (1 Bft) O 1,00 h 0,457 mm 3,7 UV-I 737 W/m 8,6 C 19,4 C 8,2 km/h (2 Bft) 96,49 %
18.04.2018 14:00 20,5 C 12,2 C 45 % 1030,6 hPa 0,0 l/m 6,4 km/h (2 Bft) NO 1,00 h 0,457 mm 3,2 UV-I 681 W/m 8,2 C 20,1 C 9,4 km/h (2 Bft) 96,65 %
18.04.2018 15:00 21,0 C 12,2 C 43 % 1030,1 hPa 0,0 l/m 5,7 km/h (1 Bft) O-NO 1,00 h 0,457 mm 2,5 UV-I 594 W/m 8,0 C 20,7 C 8,7 km/h (2 Bft) 99,50 %
18.04.2018 16:00 21,2 C 12,2 C 43 % 1029,8 hPa 0,0 l/m 4,7 km/h (1 Bft) O-NO 1,00 h 0,407 mm 1,5 UV-I 463 W/m 8,0 C 21,1 C 7,1 km/h (2 Bft) 98,24 %
18.04.2018 17:00 21,6 C 12,2 C 42 % 1029,5 hPa 0,0 l/m 4,9 km/h (1 Bft) O-NO 1,00 h 0,304 mm 0,8 UV-I 309 W/m 8,2 C 21,5 C 7,1 km/h (2 Bft) 99,25 %
18.04.2018 18:00 21,1 C 12,2 C 43 % 1029,4 hPa 0,0 l/m 3,6 km/h (1 Bft) O 1,00 h 0,229 mm 0,4 UV-I 162 W/m 8,1 C 21,1 C 5,5 km/h (1 Bft) 95,96 %
18.04.2018 19:00 19,0 C 12,2 C 53 % 1029,4 hPa 0,0 l/m 3,1 km/h (1 Bft) O-SO 0,78 h 0,127 mm 0,0 UV-I 44 W/m 9,2 C 19,0 C 4,5 km/h (1 Bft) 98,89 %
18.04.2018 20:00 15,2 C 12,2 C 66 % 1029,6 hPa 0,0 l/m 0,3 km/h (0 Bft) O-SO 0,00 h 0,051 mm 0,0 UV-I 6 W/m 8,9 C 15,2 C 0,6 km/h (0 Bft) 97,87 %
18.04.2018 21:00 13,6 C 12,2 C 70 % 1030,0 hPa 0,0 l/m 1,2 km/h (1 Bft) O-SO 0,00 h 0,000 mm 0,0 UV-I 0 W/m 8,2 C 13,6 C 1,8 km/h (1 Bft) 98,96 %
18.04.2018 22:00 12,9 C 12,2 C 72 % 1030,0 hPa 0,0 l/m 2,6 km/h (1 Bft) O-SO 0,00 h 0,000 mm 0,0 UV-I 0 W/m 7,9 C 12,9 C 3,5 km/h (1 Bft) 97,11 %
18.04.2018 23:00 11,6 C 12,2 C 77 % 1029,9 hPa 0,0 l/m 4,1 km/h (1 Bft) S-SW 0,00 h 0,025 mm 0,0 UV-I 0 W/m 7,7 C 11,6 C 5,0 km/h (1 Bft) 96,77 %
19.04.2018 00:00 10,5 C 12,2 C 80 % 1030,0 hPa 0,0 l/m 3,9 km/h (1 Bft) S-SW 0,00 h 0,000 mm 0,0 UV-I 0 W/m 7,2 C 10,5 C 4,8 km/h (1 Bft) 99,62 %
19.04.2018 01:00 9,1 C 12,2 C 82 % 1030,0 hPa 0,0 l/m 1,9 km/h (1 Bft) S-SW 0,00 h 0,025 mm 0,0 UV-I 0 W/m 6,3 C 9,1 C 2,7 km/h (1 Bft) 98,05 %
19.04.2018 02:00 8,3 C 12,2 C 84 % 1029,9 hPa 0,0 l/m 3,1 km/h (1 Bft) S-SW 0,00 h 0,000 mm 0,0 UV-I 0 W/m 5,8 C 8,3 C 4,0 km/h (1 Bft) 96,41 %
19.04.2018 03:00 8,0 C 12,2 C 84 % 1029,9 hPa 0,0 l/m 2,0 km/h (1 Bft) S-SW 0,00 h 0,000 mm 0,0 UV-I 0 W/m 5,4 C 8,0 C 2,7 km/h (1 Bft) 98,94 %
19.04.2018 04:00 7,4 C 12,2 C 85 % 1029,7 hPa 0,0 l/m 1,3 km/h (1 Bft) O 0,00 h 0,000 mm 0,0 UV-I 0 W/m 5,0 C 7,4 C 1,8 km/h (1 Bft) 97,77 %
19.04.2018 05:00 6,5 C 12,2 C 88 % 1029,6 hPa 0,0 l/m 1,1 km/h (0 Bft) S-SO 0,00 h 0,000 mm 0,0 UV-I 5 W/m 4,7 C 6,5 C 1,6 km/h (1 Bft) 97,49 %
19.04.2018 06:00 7,0 C 12,2 C 87 % 1029,8 hPa 0,0 l/m 2,2 km/h (1 Bft) S-SO 0,48 h 0,000 mm 0,0 UV-I 34 W/m 4,9 C 7,0 C 3,1 km/h (1 Bft) 98,27 %
19.04.2018 07:00 8,8 C 12,2 C 84 % 1029,9 hPa 0,0 l/m 2,6 km/h (1 Bft) SO 1,00 h 0,026 mm 0,0 UV-I 163 W/m 6,3 C 8,8 C 4,0 km/h (1 Bft) 97,62 %
19.04.2018 08:00 11,3 C 12,2 C 77 % 1029,8 hPa 0,0 l/m 7,8 km/h (2 Bft) O-NO 1,00 h 0,076 mm 0,7 UV-I 323 W/m 7,4 C 10,3 C 10,8 km/h (2 Bft) 99,22 %
19.04.2018 09:00 13,6 C 12,2 C 71 % 1029,6 hPa 0,0 l/m 10,1 km/h (2 Bft) O 1,00 h 0,178 mm 1,3 UV-I 476 W/m 8,4 C 11,6 C 13,9 km/h (3 Bft) 96,80 %
19.04.2018 10:00 17,0 C 12,2 C 62 % 1029,4 hPa 0,0 l/m 12,8 km/h (3 Bft) NO 1,00 h 0,279 mm 2,1 UV-I 604 W/m 9,7 C 14,3 C 16,8 km/h (3 Bft) 98,09 %
19.04.2018 11:00 19,1 C 12,2 C 57 % 1029,3 hPa 0,0 l/m 15,4 km/h (3 Bft) O-NO 1,00 h 0,381 mm 3,0 UV-I 700 W/m 10,4 C 16,1 C 19,9 km/h (4 Bft) 99,11 %
19.04.2018 12:00 20,6 C 12,2 C 47 % 1028,7 hPa 0,0 l/m 16,9 km/h (3 Bft) O-NO 1,00 h 0,483 mm 3,6 UV-I 756 W/m 8,6 C 17,6 C 21,9 km/h (4 Bft) 98,17 %
19.04.2018 13:00 21,8 C 12,3 C 37 % 1028,2 hPa 0,0 l/m 16,9 km/h (3 Bft) O-NO 1,00 h 0,559 mm 3,7 UV-I 756 W/m 6,5 C 19,2 C 22,5 km/h (4 Bft) 98,93 %
19.04.2018 14:00 22,8 C 12,3 C 35 % 1027,6 hPa 0,0 l/m 18,3 km/h (3 Bft) O-NO 1,00 h 0,609 mm 3,2 UV-I 698 W/m 6,5 C 20,1 C 24,3 km/h (4 Bft) 95,48 %
19.04.2018 15:00 23,4 C 12,4 C 37 % 1026,7 hPa 0,0 l/m 19,4 km/h (3 Bft) O-NO 1,00 h 0,610 mm 2,4 UV-I 605 W/m 7,8 C 20,8 C 25,3 km/h (4 Bft) 99,04 %
19.04.2018 16:00 23,7 C 12,4 C 38 % 1026,0 hPa 0,0 l/m 18,8 km/h (3 Bft) O-NO 1,00 h 0,559 mm 1,5 UV-I 469 W/m 8,5 C 21,1 C 24,2 km/h (4 Bft) 97,72 %
19.04.2018 17:00 23,3 C 12,5 C 40 % 1025,7 hPa 0,0 l/m 17,4 km/h (3 Bft) O-NO 1,00 h 0,457 mm 0,8 UV-I 314 W/m 8,9 C 20,9 C 22,7 km/h (4 Bft) 98,68 %
19.04.2018 18:00 22,5 C 12,5 C 41 % 1025,4 hPa 0,0 l/m 14,6 km/h (3 Bft) O 1,00 h 0,355 mm 0,3 UV-I 162 W/m 8,5 C 20,4 C 19,6 km/h (3 Bft) 97,07 %
19.04.2018 19:00 21,3 C 12,6 C 44 % 1025,3 hPa 0,0 l/m 9,2 km/h (2 Bft) O-SO 0,77 h 0,229 mm 0,0 UV-I 65 W/m 8,7 C 20,4 C 13,3 km/h (3 Bft) 97,32 %
19.04.2018 20:00 19,1 C 12,8 C 51 % 1025,9 hPa 0,0 l/m 8,3 km/h (2 Bft) O-SO 0,00 h 0,102 mm 0,0 UV-I 5 W/m 8,8 C 18,3 C 12,1 km/h (2 Bft) 99,38 %
19.04.2018 21:00 17,8 C 12,8 C 54 % 1026,1 hPa 0,0 l/m 5,1 km/h (1 Bft) O 0,00 h 0,050 mm 0,0 UV-I 0 W/m 8,4 C 17,7 C 6,9 km/h (2 Bft) 98,98 %
19.04.2018 22:00 15,0 C 12,8 C 65 % 1026,2 hPa 0,0 l/m 3,1 km/h (1 Bft) O 0,00 h 0,051 mm 0,0 UV-I 0 W/m 8,4 C 15,0 C 4,2 km/h (1 Bft) 96,80 %
19.04.2018 23:00 15,3 C 12,8 C 64 % 1026,1 hPa 0,0 l/m 3,8 km/h (1 Bft) O-NO 0,00 h 0,026 mm 0,0 UV-I 0 W/m 8,5 C 15,3 C 4,9 km/h (1 Bft) 97,97 %
20.04.2018 00:00 13,2 C 12,8 C 72 % 1026,0 hPa 0,0 l/m 0,8 km/h (0 Bft) O-NO 0,00 h 0,000 mm 0,0 UV-I 0 W/m 8,2 C 13,2 C 1,2 km/h (1 Bft) 96,90 %
20.04.2018 01:00 12,7 C 12,8 C 74 % 1025,8 hPa 0,0 l/m 2,0 km/h (1 Bft) O-SO 0,00 h 0,000 mm 0,0 UV-I 0 W/m 8,2 C 12,7 C 3,2 km/h (1 Bft) 99,61 %
20.04.2018 02:00 13,0 C 12,8 C 73 % 1025,5 hPa 0,0 l/m 3,9 km/h (1 Bft) O 0,00 h 0,000 mm 0,0 UV-I 0 W/m 8,2 C 13,0 C 5,5 km/h (1 Bft) 97,18 %
20.04.2018 03:00 12,1 C 12,8 C 76 % 1025,2 hPa 0,0 l/m 3,5 km/h (1 Bft) O 0,00 h 0,025 mm 0,0 UV-I 0 W/m 8,0 C 12,1 C 4,6 km/h (1 Bft) 97,91 %
20.04.2018 04:00 11,8 C 12,8 C 78 % 1025,0 hPa 0,0 l/m 7,2 km/h (2 Bft) O 0,00 h 0,026 mm 0,0 UV-I 0 W/m 8,0 C 11,0 C 10,0 km/h (2 Bft) 98,78 %
20.04.2018 05:00 10,8 C 12,8 C 81 % 1024,8 hPa 0,0 l/m 4,2 km/h (1 Bft) O 0,00 h 0,025 mm 0,0 UV-I 5 W/m 7,6 C 10,8 C 5,7 km/h (1 Bft) 98,05 %
20.04.2018 06:00 10,4 C 12,8 C 83 % 1024,9 hPa 0,0 l/m 4,1 km/h (1 Bft) O-NO 0,53 h 0,026 mm 0,0 UV-I 35 W/m 7,6 C 10,4 C 5,6 km/h (1 Bft) 97,41 %
20.04.2018 07:00 12,0 C 12,8 C 80 % 1025,0 hPa 0,0 l/m 8,6 km/h (2 Bft) O-NO 1,00 h 0,025 mm 0,0 UV-I 170 W/m 8,7 C 10,7 C 11,8 km/h (2 Bft) 96,98 %
20.04.2018 08:00 15,2 C 12,8 C 72 % 1024,9 hPa 0,0 l/m 15,1 km/h (3 Bft) O-NO 1,00 h 0,102 mm 0,7 UV-I 330 W/m 10,2 C 11,4 C 20,0 km/h (4 Bft) 98,47 %
20.04.2018 09:00 17,3 C 12,7 C 68 % 1024,9 hPa 0,0 l/m 17,6 km/h (3 Bft) O-NO 1,00 h 0,228 mm 1,4 UV-I 487 W/m 11,2 C 13,5 C 23,2 km/h (4 Bft) 98,71 %
20.04.2018 10:00 19,4 C 12,8 C 60 % 1024,7 hPa 0,0 l/m 18,7 km/h (3 Bft) O-NO 1,00 h 0,330 mm 2,3 UV-I 621 W/m 11,5 C 15,7 C 24,3 km/h (4 Bft) 96,47 %
20.04.2018 11:00 21,4 C 12,8 C 51 % 1024,4 hPa 0,0 l/m 18,1 km/h (3 Bft) O-NO 1,00 h 0,458 mm 3,3 UV-I 718 W/m 10,7 C 18,3 C 23,6 km/h (4 Bft) 98,46 %
20.04.2018 12:00 23,0 C 12,8 C 45 % 1023,8 hPa 0,0 l/m 18,3 km/h (3 Bft) NO 1,00 h 0,558 mm 3,9 UV-I 765 W/m 10,5 C 20,4 C 24,2 km/h (4 Bft) 98,15 %
20.04.2018 13:00 24,3 C 12,8 C 41 % 1023,2 hPa 0,0 l/m 20,8 km/h (4 Bft) NO 1,00 h 0,610 mm 3,9 UV-I 767 W/m 10,0 C 21,6 C 26,9 km/h (4 Bft) 99,63 %
20.04.2018 14:00 25,1 C 12,8 C 34 % 1022,7 hPa 0,0 l/m 19,4 km/h (3 Bft) O-NO 1,00 h 0,660 mm 3,5 UV-I 717 W/m 8,0 C 22,9 C 25,5 km/h (4 Bft) 97,03 %
20.04.2018 15:00 25,5 C 12,8 C 31 % 1022,0 hPa 0,0 l/m 17,7 km/h (3 Bft) O-NO 1,00 h 0,635 mm 2,6 UV-I 619 W/m 6,9 C 23,6 C 22,9 km/h (4 Bft) 97,98 %
20.04.2018 16:00 25,7 C 12,9 C 27 % 1021,2 hPa 0,0 l/m 18,3 km/h (3 Bft) O-NO 1,00 h 0,585 mm 1,7 UV-I 483 W/m 5,3 C 23,8 C 23,5 km/h (4 Bft) 97,82 %
20.04.2018 17:00 25,6 C 12,9 C 26 % 1020,7 hPa 0,0 l/m 15,8 km/h (3 Bft) O 1,00 h 0,508 mm 0,8 UV-I 339 W/m 4,8 C 23,9 C 20,8 km/h (4 Bft) 99,31 %
20.04.2018 18:00 24,5 C 12,8 C 30 % 1020,2 hPa 0,0 l/m 11,9 km/h (2 Bft) O-NO 1,00 h 0,406 mm 0,5 UV-I 180 W/m 5,7 C 23,3 C 15,8 km/h (3 Bft) 97,25 %
20.04.2018 19:00 22,6 C 12,8 C 33 % 1020,0 hPa 0,0 l/m 10,5 km/h (2 Bft) O 0,85 h 0,254 mm 0,0 UV-I 52 W/m 5,5 C 21,4 C 14,5 km/h (3 Bft) 97,48 %
20.04.2018 20:00 20,4 C 12,8 C 39 % 1020,2 hPa 0,0 l/m 6,6 km/h (2 Bft) O-SO 0,00 h 0,152 mm 0,0 UV-I 7 W/m 5,8 C 20,2 C 10,0 km/h (2 Bft) 97,93 %
20.04.2018 21:00 19,2 C 12,8 C 42 % 1020,4 hPa 0,0 l/m 8,2 km/h (2 Bft) O 0,00 h 0,077 mm 0,0 UV-I 0 W/m 6,1 C 18,4 C 11,8 km/h (2 Bft) 99,30 %
20.04.2018 22:00 17,9 C 12,8 C 48 % 1020,0 hPa 0,0 l/m 8,5 km/h (2 Bft) O 0,00 h 0,076 mm 0,0 UV-I 0 W/m 6,8 C 16,9 C 11,9 km/h (2 Bft) 97,43 %
20.04.2018 23:00 16,5 C 12,8 C 55 % 1019,6 hPa 0,0 l/m 8,1 km/h (2 Bft) O-NO 0,00 h 0,076 mm 0,0 UV-I 0 W/m 7,5 C 15,6 C 11,8 km/h (2 Bft) 97,55 %
21.04.2018 00:00 15,7 C 12,8 C 60 % 1019,4 hPa 0,0 l/m 6,1 km/h (2 Bft) O 0,00 h 0,000 mm 0,0 UV-I 0 W/m 7,8 C 14,9 C 8,8 km/h (2 Bft) 97,53 %
21.04.2018 01:00 12,7 C 12,8 C 71 % 1019,0 hPa 0,0 l/m 2,2 km/h (1 Bft) W-SW 0,00 h 0,051 mm 0,0 UV-I 0 W/m 7,6 C 12,7 C 3,1 km/h (1 Bft) 99,69 %
21.04.2018 02:00 11,5 C 12,8 C 76 % 1018,4 hPa 0,0 l/m 2,1 km/h (1 Bft) SW 0,00 h 0,025 mm 0,0 UV-I 0 W/m 7,3 C 11,5 C 2,8 km/h (1 Bft) 96,52 %
21.04.2018 03:00 10,1 C 12,8 C 81 % 1018,3 hPa 0,0 l/m 4,2 km/h (1 Bft) SW 0,00 h 0,000 mm 0,0 UV-I 0 W/m 6,9 C 10,1 C 5,1 km/h (1 Bft) 97,69 %
21.04.2018 04:00 9,2 C 12,8 C 83 % 1018,1 hPa 0,0 l/m 4,7 km/h (1 Bft) S-SW 0,00 h 0,026 mm 0,0 UV-I 0 W/m 6,5 C 9,2 C 5,6 km/h (1 Bft) 99,74 %
21.04.2018 05:00 8,8 C 12,8 C 84 % 1018,0 hPa 0,0 l/m 5,3 km/h (1 Bft) S-SW 0,00 h 0,000 mm 0,0 UV-I 5 W/m 6,2 C 8,8 C 6,5 km/h (2 Bft) 97,62 %
21.04.2018 06:00 9,0 C 12,8 C 84 % 1018,0 hPa 0,0 l/m 4,6 km/h (1 Bft) S-SW 0,58 h 0,000 mm 0,0 UV-I 41 W/m 6,4 C 9,0 C 5,6 km/h (1 Bft) 96,89 %
21.04.2018 07:00 11,5 C 12,8 C 77 % 1018,3 hPa 0,0 l/m 4,1 km/h (1 Bft) SW 1,00 h 0,025 mm 0,0 UV-I 182 W/m 7,5 C 11,5 C 5,6 km/h (1 Bft) 98,63 %
21.04.2018 08:00 14,9 C 13,1 C 67 % 1018,4 hPa 0,0 l/m 3,3 km/h (1 Bft) W-SW 1,00 h 0,102 mm 0,7 UV-I 341 W/m 8,8 C 14,9 C 4,9 km/h (1 Bft) 98,77 %
21.04.2018 09:00 17,4 C 13,3 C 59 % 1018,4 hPa 0,0 l/m 3,4 km/h (1 Bft) W 0,98 h 0,203 mm 1,5 UV-I 489 W/m 9,3 C 17,4 C 5,3 km/h (1 Bft) 97,91 %
21.04.2018 10:00 19,7 C 13,3 C 52 % 1018,5 hPa 0,0 l/m 5,0 km/h (1 Bft) W 1,00 h 0,279 mm 2,4 UV-I 629 W/m 9,6 C 19,6 C 7,4 km/h (2 Bft) 97,38 %
21.04.2018 11:00 21,3 C 13,3 C 48 % 1018,3 hPa 0,0 l/m 5,0 km/h (1 Bft) N-NW 1,00 h 0,407 mm 3,2 UV-I 718 W/m 9,9 C 21,3 C 7,5 km/h (2 Bft) 98,01 %
21.04.2018 12:00 23,0 C 13,3 C 45 % 1017,7 hPa 0,0 l/m 5,8 km/h (2 Bft) W 1,00 h 0,457 mm 3,8 UV-I 773 W/m 10,6 C 22,8 C 8,9 km/h (2 Bft) 99,58 %
21.04.2018 13:00 24,6 C 13,3 C 44 % 1017,0 hPa 0,0 l/m 5,2 km/h (1 Bft) W 1,00 h 0,508 mm 3,8 UV-I 772 W/m 11,4 C 24,4 C 8,4 km/h (2 Bft) 97,64 %
21.04.2018 14:00 26,1 C 13,6 C 40 % 1016,5 hPa 0,0 l/m 7,5 km/h (2 Bft) W 1,00 h 0,533 mm 3,3 UV-I 718 W/m 11,3 C 25,7 C 11,6 km/h (2 Bft) 97,41 %
21.04.2018 15:00 26,7 C 13,9 C 37 % 1015,9 hPa 0,0 l/m 6,7 km/h (2 Bft) W 1,00 h 0,534 mm 2,5 UV-I 611 W/m 10,9 C 26,5 C 11,1 km/h (2 Bft) 98,32 %
21.04.2018 16:00 26,7 C 14,7 C 36 % 1015,3 hPa 0,0 l/m 5,7 km/h (1 Bft) W 1,00 h 0,457 mm 1,6 UV-I 484 W/m 10,3 C 26,6 C 9,6 km/h (2 Bft) 99,22 %
21.04.2018 17:00 26,3 C 15,0 C 35 % 1015,0 hPa 0,0 l/m 6,0 km/h (2 Bft) W 1,00 h 0,381 mm 0,8 UV-I 331 W/m 9,8 C 26,1 C 10,6 km/h (2 Bft) 95,99 %
21.04.2018 18:00 25,2 C 14,6 C 38 % 1014,7 hPa 0,0 l/m 6,3 km/h (2 Bft) W 1,00 h 0,279 mm 0,5 UV-I 171 W/m 9,9 C 25,0 C 10,9 km/h (2 Bft) 98,88 %
21.04.2018 19:00 23,7 C 14,4 C 41 % 1014,6 hPa 0,0 l/m 4,1 km/h (1 Bft) W 0,43 h 0,178 mm 0,0 UV-I 43 W/m 9,6 C 23,6 C 6,0 km/h (2 Bft) 98,17 %
21.04.2018 20:00 19,8 C 14,4 C 53 % 1014,8 hPa 0,0 l/m 3,5 km/h (1 Bft) W 0,00 h 0,076 mm 0,0 UV-I 6 W/m 10,0 C 19,8 C 4,5 km/h (1 Bft) 99,38 %
21.04.2018 21:00 17,5 C 14,2 C 61 % 1015,2 hPa 0,0 l/m 5,3 km/h (1 Bft) SW 0,00 h 0,026 mm 0,0 UV-I 0 W/m 9,9 C 17,5 C 6,5 km/h (2 Bft) 96,28 %
21.04.2018 22:00 17,4 C 13,9 C 61 % 1015,1 hPa 0,0 l/m 6,9 km/h (2 Bft) S-SW 0,00 h 0,025 mm 0,0 UV-I 0 W/m 9,9 C 17,0 C 8,8 km/h (2 Bft) 97,89 %
21.04.2018 23:00 16,9 C 13,9 C 62 % 1015,1 hPa 0,0 l/m 8,0 km/h (2 Bft) S-SW 0,00 h 0,051 mm 0,0 UV-I 0 W/m 9,6 C 16,1 C 10,0 km/h (2 Bft) 98,66 %
22.04.2018 00:00 16,2 C 13,9 C 66 % 1015,5 hPa 0,0 l/m 4,7 km/h (1 Bft) S-SW 0,00 h 0,000 mm 0,0 UV-I 0 W/m 9,9 C 15,9 C 6,8 km/h (2 Bft) 98,95 %
22.04.2018 01:00 14,2 C 13,9 C 74 % 1015,3 hPa 0,0 l/m 3,9 km/h (1 Bft) SW 0,00 h 0,025 mm 0,0 UV-I 0 W/m 9,5 C 14,2 C 4,9 km/h (1 Bft) 98,14 %
22.04.2018 02:00 13,4 C 13,9 C 77 % 1015,3 hPa 0,0 l/m 5,3 km/h (1 Bft) S-SW 0,00 h 0,026 mm 0,0 UV-I 0 W/m 9,5 C 13,3 C 6,6 km/h (2 Bft) 96,19 %
22.04.2018 03:00 13,5 C 13,9 C 76 % 1015,2 hPa 0,0 l/m 5,6 km/h (1 Bft) S-SW 0,00 h 0,025 mm 0,0 UV-I 0 W/m 9,4 C 13,5 C 7,2 km/h (2 Bft) 99,07 %
22.04.2018 04:00 13,1 C 13,9 C 77 % 1015,0 hPa 0,0 l/m 6,4 km/h (2 Bft) S-SW 0,00 h 0,026 mm 0,0 UV-I 0 W/m 9,0 C 12,9 C 8,1 km/h (2 Bft) 97,93 %
22.04.2018 05:00 11,9 C 13,7 C 81 % 1014,8 hPa 0,0 l/m 4,4 km/h (1 Bft) S-SW 0,00 h 0,025 mm 0,0 UV-I 6 W/m 8,7 C 11,9 C 5,5 km/h (1 Bft) 98,50 %
22.04.2018 06:00 11,2 C 13,3 C 84 % 1015,0 hPa 0,0 l/m 2,4 km/h (1 Bft) S-SW 0,23 h 0,025 mm 0,0 UV-I 35 W/m 8,5 C 11,2 C 3,4 km/h (1 Bft) 96,35 %
22.04.2018 07:00 12,9 C 13,3 C 80 % 1015,2 hPa 0,0 l/m 2,8 km/h (1 Bft) S-SW 1,00 h 0,026 mm 0,0 UV-I 167 W/m 9,5 C 12,9 C 4,0 km/h (1 Bft) 98,88 %
22.04.2018 08:00 15,9 C 13,7 C 72 % 1015,2 hPa 0,0 l/m 3,1 km/h (1 Bft) S-SW 1,00 h 0,101 mm 0,7 UV-I 326 W/m 10,8 C 15,9 C 4,5 km/h (1 Bft) 98,61 %
22.04.2018 09:00 18,3 C 13,9 C 65 % 1015,3 hPa 0,0 l/m 2,7 km/h (1 Bft) NO 1,00 h 0,178 mm 1,3 UV-I 478 W/m 11,6 C 18,3 C 4,2 km/h (1 Bft) 96,68 %
22.04.2018 10:00 20,0 C 13,9 C 62 % 1015,2 hPa 0,0 l/m 3,4 km/h (1 Bft) O 1,00 h 0,280 mm 2,1 UV-I 610 W/m 12,4 C 20,0 C 5,5 km/h (1 Bft) 97,26 %
22.04.2018 11:00 21,5 C 14,1 C 57 % 1014,9 hPa 0,0 l/m 4,4 km/h (1 Bft) NO 0,98 h 0,381 mm 2,8 UV-I 694 W/m 12,8 C 21,5 C 6,1 km/h (2 Bft) 98,82 %
22.04.2018 12:00 22,9 C 14,4 C 55 % 1014,3 hPa 0,0 l/m 4,3 km/h (1 Bft) N-NW 1,00 h 0,431 mm 3,3 UV-I 757 W/m 13,3 C 22,9 C 6,4 km/h (2 Bft) 97,08 %
22.04.2018 13:00 24,1 C 15,0 C 49 % 1013,7 hPa 0,0 l/m 4,0 km/h (1 Bft) W-NW 1,00 h 0,483 mm 3,4 UV-I 759 W/m 12,7 C 24,1 C 6,3 km/h (2 Bft) 97,11 %
22.04.2018 14:00 25,4 C 15,5 C 41 % 1013,3 hPa 0,0 l/m 5,3 km/h (1 Bft) N-NO 1,00 h 0,508 mm 3,0 UV-I 706 W/m 11,3 C 25,2 C 8,3 km/h (2 Bft) 97,06 %
22.04.2018 15:00 26,4 C 15,7 C 38 % 1012,7 hPa 0,0 l/m 5,1 km/h (1 Bft) N-NO 1,00 h 0,508 mm 2,3 UV-I 621 W/m 11,0 C 26,3 C 7,6 km/h (2 Bft) 98,87 %
22.04.2018 16:00 26,4 C 16,1 C 36 % 1012,1 hPa 0,0 l/m 6,1 km/h (2 Bft) NW 1,00 h 0,457 mm 1,4 UV-I 481 W/m 10,2 C 26,3 C 9,8 km/h (2 Bft) 96,96 %
22.04.2018 17:00 26,1 C 16,1 C 36 % 1011,8 hPa 0,0 l/m 4,6 km/h (1 Bft) NW 1,00 h 0,381 mm 0,7 UV-I 318 W/m 9,7 C 26,0 C 7,6 km/h (2 Bft) 96,91 %
22.04.2018 18:00 25,4 C 16,1 C 35 % 1011,6 hPa 0,0 l/m 3,5 km/h (1 Bft) W 1,00 h 0,254 mm 0,4 UV-I 169 W/m 8,8 C 25,4 C 5,7 km/h (1 Bft) 97,94 %
22.04.2018 19:00 23,6 C 16,1 C 42 % 1011,6 hPa 0,0 l/m 2,1 km/h (1 Bft) W 0,62 h 0,153 mm 0,0 UV-I 47 W/m 9,8 C 23,6 C 3,0 km/h (1 Bft) 99,02 %
22.04.2018 20:00 18,7 C 16,1 C 57 % 1012,1 hPa 0,0 l/m 3,9 km/h (1 Bft) W-SW 0,00 h 0,050 mm 0,0 UV-I 5 W/m 10,1 C 18,7 C 4,8 km/h (1 Bft) 97,05 %
22.04.2018 21:00 17,4 C 16,1 C 60 % 1012,4 hPa 0,0 l/m 5,0 km/h (1 Bft) S-SW 0,00 h 0,026 mm 0,0 UV-I 0 W/m 9,5 C 17,4 C 6,0 km/h (2 Bft) 96,66 %
22.04.2018 22:00 17,5 C 16,1 C 60 % 1012,5 hPa 0,0 l/m 5,8 km/h (2 Bft) S-SW 0,00 h 0,025 mm 0,0 UV-I 0 W/m 9,7 C 17,4 C 7,2 km/h (2 Bft) 98,56 %
22.04.2018 23:00 16,7 C 16,1 C 63 % 1012,5 hPa 0,0 l/m 6,4 km/h (2 Bft) S-SW 0,00 h 0,051 mm 0,0 UV-I 0 W/m 9,7 C 16,4 C 8,4 km/h (2 Bft) 98,69 %
Min-Datum _ 19.04.18 16.04.18 20.04.18 16.04.18 - 17.04.18 - - - - - 20.04.18 16.04.18 17.04.18 18.04.18
_ Min-Zeit 05:25 00:00 16:49 00:34 - 02:40 - - - - - 16:49 08:45 02:40 14:00
Minimum _ 6,0 C 11,1 C 23 % 1006,6 hPa - 0,0 km/h (0 Bft) - - - - - 3,0 C 5,7 C 0,0 km/h (0 Bft) 78,57 %
Max-Datum _ 21.04.18 21.04.18 17.04.18 18.04.18 16.04.18 20.04.18 - 19.04.18 20.04.18 20.04.18 17.04.18 22.04.18 21.04.18 16.04.18 16.04.18
_ Max-Zeit 16:25 14:43 08:43 09:59 21:42 14:23 - 19:25 14:01 12:51 14:20 13:10 16:25 08:45 00:03
Maximum _ 27,0 C 16,7 C 98 % 1031,4 hPa 0,4 l/m 28,3 km/h
O-NO (4 Bft)
- 0,08 h 0,660 mm 4,0 UV-I 886 W/m 14,6 C 27,0 C 37,0 km/h
W-SW (5 Bft)
100,00 %
Durchschnitt _ 16,2 C 12,7 C 66 % 1021,0 hPa #1,2 l/m 6,7 km/h (2 Bft) S-SW #76:35 h #28,474 mm 2,0 UV-I 350 W/m 9,2 C 15,5 C 9,3 km/h (2 Bft) 97,92 %